Time;durP1;ratioP1;P1;durP2;ratioP2;P2;SDS_P1;SDS_P2;PMS_P1;PMS_P2;Temp;Humidity;BMP_temperature;BMP_pressure;BME280_temperature;BME280_humidity;BME280_pressure;Samples;Min_cycle;Max_cycle;Signal;HPM_P1;HPM_P2
2023/05/26 00:01:34;;;;;;;17.50;13.50;;;;;;;16.71;81.07;101187.63;104548;1265;99570;-78
2023/05/26 00:04:22;;;;;;;16.00;13.00;;;;;;;16.66;81.59;101188.36;104772;1267;102123;-78
2023/05/26 00:07:08;;;;;;;17.00;13.40;;;;;;;16.61;81.65;101188.45;104737;1268;99249;-76
2023/05/26 00:09:53;;;;;;;15.80;13.50;;;;;;;16.59;81.83;101191.46;104575;1265;98037;-77
2023/05/26 00:12:39;;;;;;;15.30;11.40;;;;;;;16.57;81.88;101193.20;104539;1265;97981;-78
2023/05/26 00:15:24;;;;;;;17.80;11.50;;;;;;;16.56;82.10;101197.73;104566;1265;97977;-78
2023/05/26 00:18:10;;;;;;;19.50;12.90;;;;;;;16.55;81.80;101199.36;104587;1265;101372;-77
2023/05/26 00:20:56;;;;;;;16.60;12.10;;;;;;;16.57;81.96;101198.23;104506;1267;99074;-77
2023/05/26 00:23:42;;;;;;;14.50;11.80;;;;;;;16.59;82.14;101198.33;104694;1267;98088;-79
2023/05/26 00:26:27;;;;;;;16.20;12.50;;;;;;;16.61;82.05;101199.65;104670;1265;97935;-82
2023/05/26 00:29:13;;;;;;;14.20;12.60;;;;;;;16.62;82.02;101202.48;105050;1268;98480;-79
2023/05/26 00:31:58;;;;;;;15.60;11.20;;;;;;;16.61;81.97;101203.84;104884;1265;101383;-79
2023/05/26 00:34:45;;;;;;;12.80;11.60;;;;;;;16.62;81.87;101202.27;104808;1265;99118;-79
2023/05/26 00:37:30;;;;;;;13.20;11.10;;;;;;;16.63;81.86;101199.27;104729;1270;99040;-78
2023/05/26 00:40:16;;;;;;;13.20;11.00;;;;;;;16.64;81.93;101199.64;104684;1269;98025;-77
2023/05/26 00:43:02;;;;;;;11.60;10.30;;;;;;;16.63;81.71;101199.19;104568;1265;97988;-76
2023/05/26 00:45:47;;;;;;;11.50;9.60;;;;;;;16.63;81.41;101197.27;104567;1269;101378;-78
2023/05/26 00:48:33;;;;;;;10.00;9.00;;;;;;;16.60;81.02;101192.11;104498;1265;100393;-78
2023/05/26 00:51:18;;;;;;;10.30;9.10;;;;;;;16.57;81.08;101189.45;104644;1268;98313;-77
2023/05/26 00:54:05;;;;;;;10.50;8.90;;;;;;;16.55;80.92;101191.38;104525;1268;98527;-78
2023/05/26 00:56:51;;;;;;;9.00;8.10;;;;;;;16.51;80.82;101194.63;105404;1270;98062;-81
2023/05/26 00:59:37;;;;;;;9.00;8.10;;;;;;;16.47;80.79;101192.02;104635;1265;101376;-77
2023/05/26 01:02:22;;;;;;;10.50;7.90;;;;;;;16.44;80.83;101190.12;104556;1271;99081;-78
2023/05/26 01:05:08;;;;;;;9.20;8.20;;;;;;;16.41;80.86;101193.91;104821;1267;97965;-79
2023/05/26 01:07:53;;;;;;;13.00;9.20;;;;;;;16.41;80.83;101196.44;104646;1270;98597;-77
2023/05/26 01:10:39;;;;;;;12.10;9.80;;;;;;;16.41;81.19;101202.97;104586;1270;97930;-77
2023/05/26 01:13:29;;;;;;;9.80;8.80;;;;;;;16.41;81.31;101203.92;104609;1265;101529;-77
2023/05/26 01:16:18;;;;;;;12.10;10.20;;;;;;;16.42;81.59;101200.73;104593;1270;99128;-80
2023/05/26 01:19:37;;;;;;;10.70;9.60;;;;;;;16.41;81.47;101200.60;105176;1270;99069;-76
2023/05/26 01:22:50;;;;;;;11.30;8.50;;;;;;;16.41;81.24;101195.48;104895;1269;97973;-81
2023/05/26 01:25:44;;;;;;;11.90;8.90;;;;;;;16.41;81.02;101195.94;104955;1265;98721;-80
2023/05/26 01:28:32;;;;;;;10.50;8.20;;;;;;;16.40;80.85;101195.70;105039;1265;102676;-79
2023/05/26 01:31:18;;;;;;;9.20;8.30;;;;;;;16.37;80.79;101198.53;104978;1269;99993;-80
2023/05/26 01:34:04;;;;;;;11.90;9.90;;;;;;;16.35;80.89;101201.37;104825;1265;98772;-79
2023/05/26 01:36:49;;;;;;;11.70;10.50;;;;;;;16.33;81.05;101203.29;104504;1265;98071;-78
2023/05/26 01:39:36;;;;;;;10.60;9.40;;;;;;;16.29;81.27;101203.61;104627;1270;98588;-77
2023/05/26 01:42:25;;;;;;;11.10;9.00;;;;;;;16.24;81.38;101199.58;104584;1265;101388;-77
2023/05/26 01:45:14;;;;;;;12.00;9.90;;;;;;;16.21;81.32;101192.88;104623;1266;99116;-78
2023/05/26 01:48:03;;;;;;;11.10;9.30;;;;;;;16.20;81.38;101193.84;104564;1265;98024;-77
2023/05/26 01:50:55;;;;;;;13.30;8.40;;;;;;;16.19;81.11;101190.02;104780;1265;97972;-80
2023/05/26 01:53:42;;;;;;;10.00;9.00;;;;;;;16.16;81.34;101189.52;104979;1265;98419;-80
2023/05/26 01:56:31;;;;;;;9.20;8.30;;;;;;;16.14;81.45;101186.20;104909;1265;101752;-80
2023/05/26 01:59:17;;;;;;;12.60;8.50;;;;;;;16.12;81.14;101185.20;105029;1265;99442;-79
2023/05/26 02:02:02;;;;;;;10.00;8.20;;;;;;;16.11;81.12;101180.95;104940;1265;99260;-80
2023/05/26 02:04:49;;;;;;;11.60;8.50;;;;;;;16.09;81.15;101188.81;104924;1265;97938;-79
2023/05/26 02:07:38;;;;;;;10.50;8.50;;;;;;;16.06;81.05;101200.58;104563;1267;98429;-78
2023/05/26 02:10:24;;;;;;;11.00;9.00;;;;;;;16.04;81.26;101205.27;104668;1270;102111;-77
2023/05/26 02:13:10;;;;;;;12.70;9.20;;;;;;;15.99;81.54;101208.73;104632;1270;99087;-77
2023/05/26 02:15:55;;;;;;;14.40;9.20;;;;;;;15.95;81.61;101210.18;104533;1269;98741;-78
2023/05/26 02:18:41;;;;;;;11.10;8.50;;;;;;;15.94;81.71;101210.27;104781;1269;98561;-79
2023/05/26 02:21:26;;;;;;;11.80;8.00;;;;;;;15.92;81.48;101211.52;104821;1269;99417;-78
2023/05/26 02:24:12;;;;;;;10.30;8.70;;;;;;;15.93;81.40;101211.92;104847;1270;101355;-78
2023/05/26 02:26:57;;;;;;;11.20;8.70;;;;;;;15.95;81.56;101212.39;104635;1266;100097;-77
2023/05/26 02:29:43;;;;;;;16.10;12.00;;;;;;;15.97;81.91;101210.27;104563;1265;98998;-77
2023/05/26 02:32:30;;;;;;;15.10;10.90;;;;;;;15.97;82.16;101211.75;104603;1264;98054;-78
2023/05/26 02:35:16;;;;;;;14.30;11.10;;;;;;;15.96;82.55;101211.89;104625;1265;98666;-78
2023/05/26 02:38:01;;;;;;;17.40;13.10;;;;;;;15.96;82.92;101209.98;104625;1269;101405;-77
2023/05/26 02:40:47;;;;;;;16.80;11.20;;;;;;;15.96;82.93;101208.06;104642;1265;99076;-77
2023/05/26 02:43:33;;;;;;;13.20;10.80;;;;;;;15.97;83.04;101208.84;104887;1268;99090;-79
2023/05/26 02:46:18;;;;;;;13.80;12.00;;;;;;;15.97;83.11;101208.10;104766;1268;97968;-79
2023/05/26 02:49:04;;;;;;;15.50;11.50;;;;;;;15.97;83.01;101203.15;104832;1269;98615;-80
2023/05/26 02:51:49;;;;;;;14.10;12.50;;;;;;;15.96;82.99;101208.27;104781;1269;101375;-78
2023/05/26 02:54:35;;;;;;;13.20;11.80;;;;;;;15.97;82.81;101209.23;104888;1265;101803;-79
2023/05/26 02:57:20;;;;;;;13.60;12.20;;;;;;;15.97;82.93;101207.52;104829;1265;98734;-79
2023/05/26 03:00:07;;;;;;;11.60;10.40;;;;;;;15.94;82.76;101207.06;104780;1267;98051;-80
2023/05/26 03:02:52;;;;;;;13.40;11.00;;;;;;;15.93;82.68;101209.93;105007;1266;97930;-81
2023/05/26 03:05:38;;;;;;;12.20;11.00;;;;;;;15.92;83.06;101208.27;104975;1270;102635;-80
2023/05/26 03:08:23;;;;;;;12.90;11.50;;;;;;;15.91;83.38;101208.27;105041;1269;99088;-81
2023/05/26 03:11:09;;;;;;;14.60;12.20;;;;;;;15.90;83.65;101204.41;105028;1268;98992;-81
2023/05/26 03:13:55;;;;;;;12.70;11.20;;;;;;;15.89;83.83;101202.20;105091;1265;97973;-80
2023/05/26 03:16:40;;;;;;;13.60;12.30;;;;;;;15.88;83.91;101200.36;105106;1265;98043;-80
2023/05/26 03:19:26;;;;;;;13.10;11.20;;;;;;;15.87;83.86;101203.27;104951;1269;101357;-80
2023/05/26 03:22:12;;;;;;;18.70;11.50;;;;;;;15.85;84.23;101204.64;105130;1265;100519;-79
2023/05/26 03:24:58;;;;;;;12.90;11.50;;;;;;;15.82;84.22;101205.71;104637;1269;97997;-80
2023/05/26 03:27:48;;;;;;;13.10;11.30;;;;;;;15.80;84.38;101208.70;105216;1268;98035;-80
2023/05/26 03:30:33;;;;;;;12.90;11.60;;;;;;;15.78;84.60;101211.45;104989;1265;98186;-80
2023/05/26 03:33:21;;;;;;;13.60;12.10;;;;;;;15.79;84.76;101211.73;104965;1265;101836;-79
2023/05/26 03:36:08;;;;;;;12.60;11.40;;;;;;;15.81;85.10;101213.98;104842;1265;99729;-79
2023/05/26 03:38:54;;;;;;;14.70;12.90;;;;;;;15.81;85.47;101214.83;104965;1265;99271;-77
2023/05/26 03:41:40;;;;;;;13.30;11.70;;;;;;;15.80;85.77;101216.06;104821;1265;97986;-80
2023/05/26 03:44:26;;;;;;;17.60;13.90;;;;;;;15.78;86.15;101220.13;104698;1270;98428;-78
2023/05/26 03:47:12;;;;;;;18.20;13.50;;;;;;;15.77;86.49;101223.88;104648;1270;101337;-77
2023/05/26 03:49:57;;;;;;;20.90;14.10;;;;;;;15.79;86.57;101225.04;104546;1270;100089;-79
2023/05/26 03:52:45;;;;;;;17.60;14.20;;;;;;;15.79;86.83;101227.87;104571;1270;98016;-79
2023/05/26 03:55:33;;;;;;;14.60;13.00;;;;;;;15.81;87.24;101227.99;104929;1265;98588;-78
2023/05/26 03:58:18;;;;;;;16.30;13.70;;;;;;;15.82;87.57;101229.17;104842;1265;99733;-79
2023/05/26 04:01:04;;;;;;;15.80;13.80;;;;;;;15.81;87.74;101226.67;104851;1267;101514;-79
2023/05/26 04:03:49;;;;;;;15.60;14.00;;;;;;;15.78;87.91;101226.29;104888;1270;100768;-79
2023/05/26 04:06:35;;;;;;;17.50;14.30;;;;;;;15.76;87.95;101227.54;104718;1269;98758;-78
2023/05/26 04:09:21;;;;;;;22.60;14.50;;;;;;;15.79;87.93;101232.11;104610;1268;98007;-78
2023/05/26 04:12:07;;;;;;;19.30;13.70;;;;;;;15.83;87.92;101231.73;104648;1270;98004;-79
2023/05/26 04:14:53;;;;;;;20.50;15.00;;;;;;;15.87;87.79;101231.09;104719;1265;101399;-80
2023/05/26 04:17:39;;;;;;;19.30;14.60;;;;;;;15.93;87.76;101237.20;104688;1267;99844;-79
2023/05/26 04:20:25;;;;;;;19.50;13.70;;;;;;;15.98;87.83;101235.75;104534;1265;98061;-78
2023/05/26 04:23:11;;;;;;;15.00;13.60;;;;;;;16.05;87.73;101236.77;104598;1265;99263;-79
2023/05/26 04:25:57;;;;;;;15.10;13.40;;;;;;;16.12;87.91;101238.91;104608;1269;99655;-78
2023/05/26 04:28:56;;;;;;;13.40;12.00;;;;;;;16.15;87.79;101235.73;104620;1265;102728;-78
2023/05/26 04:32:21;;;;;;;16.30;13.10;;;;;;;16.15;87.45;101235.52;104543;1268;100172;-80
2023/05/26 04:35:34;;;;;;;14.70;13.10;;;;;;;16.17;87.62;101238.52;104483;1273;99041;-77
2023/05/26 04:38:20;;;;;;;17.80;13.30;;;;;;;16.20;87.58;101236.73;104604;1266;97981;-78
2023/05/26 04:41:07;;;;;;;15.10;11.90;;;;;;;16.22;87.49;101237.92;104721;1265;98453;-80
2023/05/26 04:43:52;;;;;;;16.00;11.70;;;;;;;16.25;87.42;101239.02;104714;1269;102250;-77
2023/05/26 04:46:38;;;;;;;16.40;12.20;;;;;;;16.26;87.39;101239.17;104650;1268;99481;-78
2023/05/26 04:49:25;;;;;;;15.20;13.00;;;;;;;16.28;87.31;101240.09;104509;1265;98656;-80
2023/05/26 04:52:10;;;;;;;14.30;12.50;;;;;;;16.34;87.41;101238.25;104707;1269;97984;-78
2023/05/26 04:54:57;;;;;;;14.20;12.50;;;;;;;16.39;87.25;101238.13;104713;1265;97987;-79
2023/05/26 04:57:43;;;;;;;15.20;12.40;;;;;;;16.42;87.23;101234.92;104511;1269;101359;-78
2023/05/26 05:00:31;;;;;;;17.80;12.30;;;;;;;16.46;86.86;101239.30;104537;1265;100296;-78
2023/05/26 05:03:23;;;;;;;17.00;11.80;;;;;;;16.50;86.62;101242.02;104600;1265;97926;-79
2023/05/26 05:06:19;;;;;;;13.40;12.00;;;;;;;16.56;86.59;101247.41;104626;1270;98073;-77
2023/05/26 05:09:04;;;;;;;14.80;12.30;;;;;;;16.58;86.03;101245.55;104960;1268;98044;-78
2023/05/26 05:11:50;;;;;;;16.70;12.60;;;;;;;16.60;86.32;101246.29;104871;1265;102734;-79
2023/05/26 05:14:36;;;;;;;19.90;12.20;;;;;;;16.65;85.92;101245.65;104703;1268;99828;-78
2023/05/26 05:17:23;;;;;;;15.80;11.60;;;;;;;16.68;85.61;101245.06;105503;1265;99284;-87
2023/05/26 05:20:09;;;;;;;15.60;11.80;;;;;;;16.72;85.59;101245.52;105502;1268;98031;-85
2023/05/26 05:22:55;;;;;;;14.90;11.30;;;;;;;16.79;85.55;101246.77;105311;1265;97978;-84
2023/05/26 05:25:42;;;;;;;15.30;12.00;;;;;;;16.88;85.68;101245.32;105701;1266;101372;-87
2023/05/26 05:28:29;;;;;;;16.00;11.50;;;;;;;16.94;85.44;101241.40;105968;1265;100377;-86
2023/05/26 05:31:34;;;;;;;17.70;11.80;;;;;;;16.99;85.21;101241.59;105740;1265;98029;-86
2023/05/26 05:34:20;;;;;;;14.00;11.40;;;;;;;17.05;85.48;101240.40;105677;1265;97937;-87
2023/05/26 05:37:06;;;;;;;14.30;10.60;;;;;;;17.13;84.87;101241.24;105947;1265;97877;-86
2023/05/26 05:39:52;;;;;;;13.70;10.50;;;;;;;17.17;84.42;101245.73;105812;1267;103644;-83
2023/05/26 05:42:38;;;;;;;13.20;9.90;;;;;;;17.22;84.20;101244.75;105476;1270;99717;-85
2023/05/26 05:45:24;;;;;;;11.60;9.70;;;;;;;17.30;84.40;101249.84;105447;1273;99073;-86
2023/05/26 05:48:27;;;;;;;17.20;10.10;;;;;;;17.39;83.74;101256.94;105545;1270;97993;-86
2023/05/26 05:51:19;;;;;;;14.50;10.30;;;;;;;17.50;83.63;101260.19;105521;1270;98049;-86
2023/05/26 05:54:05;;;;;;;19.80;10.40;;;;;;;17.57;82.82;101259.88;105461;1270;101968;-83
2023/05/26 05:56:51;;;;;;;16.00;11.00;;;;;;;17.65;82.69;101258.08;105426;1270;99139;-84
2023/05/26 05:59:39;;;;;;;12.60;9.90;;;;;;;17.72;82.60;101255.59;105492;1265;98063;-83
2023/05/26 06:02:25;;;;;;;12.90;9.20;;;;;;;17.78;81.85;101256.94;105466;1265;98057;-83
2023/05/26 06:05:11;;;;;;;15.20;9.60;;;;;;;17.83;81.55;101255.44;105383;1265;96648;-86
2023/05/26 06:07:56;;;;;;;14.00;9.40;;;;;;;17.88;80.83;101251.56;105321;1270;101506;-82
2023/05/26 06:10:43;;;;;;;13.10;8.20;;;;;;;17.95;80.68;101248.89;105388;1265;100461;-83
2023/05/26 06:13:29;;;;;;;10.60;7.70;;;;;;;18.03;80.43;101250.25;105356;1265;97915;-82
2023/05/26 06:16:15;;;;;;;11.90;8.30;;;;;;;18.13;79.71;101254.06;105340;1272;98065;-82
2023/05/26 06:19:01;;;;;;;12.10;8.10;;;;;;;18.21;79.07;101255.41;106000;1265;98484;-86
2023/05/26 06:21:49;;;;;;;11.70;7.20;;;;;;;18.29;78.97;101253.14;105501;1267;157011;-86
2023/05/26 06:24:35;;;;;;;14.40;7.70;;;;;;;18.33;78.27;101252.31;105381;1265;101642;-83
2023/05/26 06:27:21;;;;;;;11.60;7.10;;;;;;;18.33;77.57;101255.77;105449;1271;99058;-82
2023/05/26 06:30:07;;;;;;;12.70;7.30;;;;;;;18.35;77.56;101256.91;105474;1265;97973;-84
2023/05/26 06:32:54;;;;;;;9.20;6.40;;;;;;;18.44;77.10;101253.40;105319;1265;97837;-83
2023/05/26 06:35:40;;;;;;;11.80;6.00;;;;;;;18.51;76.00;101250.25;105311;1273;103258;-83
2023/05/26 06:38:25;;;;;;;14.10;6.00;;;;;;;18.55;75.58;101249.44;105526;1265;99137;-87
2023/05/26 06:41:13;;;;;;;9.60;5.20;;;;;;;18.58;74.53;101249.17;105609;1265;97973;-86
2023/05/26 06:43:59;;;;;;;11.40;6.80;;;;;;;18.64;74.40;101251.42;105486;1265;97914;-88
2023/05/26 06:46:45;;;;;;;12.10;7.30;;;;;;;18.72;74.16;101255.40;105527;1265;98800;-79
2023/05/26 06:49:34;;;;;;;14.40;6.60;;;;;;;18.78;74.79;101255.02;104740;1265;102587;-78
2023/05/26 06:52:27;;;;;;;7.30;5.30;;;;;;;18.87;75.23;101256.53;104897;1265;99087;-85
2023/05/26 06:55:12;;;;;;;13.00;6.70;;;;;;;18.95;74.14;101255.70;105886;1272;98052;-85
2023/05/26 06:57:58;;;;;;;7.60;4.70;;;;;;;18.94;73.52;101256.89;105516;1266;97768;-85
2023/05/26 07:01:17;;;;;;;9.40;5.00;;;;;;;18.98;72.32;101259.81;105559;1270;97977;-79
2023/05/26 07:04:02;;;;;;;10.90;5.00;;;;;;;19.05;72.31;101264.58;105211;1277;101979;-79
2023/05/26 07:06:47;;;;;;;13.20;5.70;;;;;;;19.04;71.15;101270.35;105492;1265;99439;-77
2023/05/26 07:09:34;;;;;;;9.80;4.60;;;;;;;19.01;70.75;101267.46;104622;1271;98064;-78
2023/05/26 07:12:21;;;;;;;8.10;3.90;;;;;;;19.02;70.25;101269.50;104826;1268;98080;-78
2023/05/26 07:15:10;;;;;;;9.30;4.30;;;;;;;19.01;70.13;101272.90;104746;1272;98519;-78
2023/05/26 07:17:57;;;;;;;11.10;5.40;;;;;;;19.05;70.47;101274.31;105497;1281;101432;-89
2023/05/26 07:20:43;;;;;;;7.80;4.00;;;;;;;19.13;69.82;101276.77;106154;1265;100105;-87
2023/05/26 07:23:30;;;;;;;10.70;4.70;;;;;;;19.19;68.61;101276.80;106089;1265;98507;-86
2023/05/26 07:26:16;;;;;;;11.00;4.70;;;;;;;19.27;69.36;101277.86;105869;1269;97965;-86
2023/05/26 07:29:02;;;;;;;13.20;4.70;;;;;;;19.37;68.34;101275.59;105660;1264;98515;-86
2023/05/26 07:31:47;;;;;;;7.30;4.80;;;;;;;19.46;68.51;101276.52;105998;1265;102770;-87
2023/05/26 07:34:35;;;;;;;8.20;5.20;;;;;;;19.52;68.16;101272.84;105967;1265;99146;-87
2023/05/26 07:37:20;;;;;;;11.80;4.70;;;;;;;19.55;68.38;101274.57;105998;1270;97981;-87
2023/05/26 07:40:07;;;;;;;9.70;4.10;;;;;;;19.60;67.75;101275.05;105681;1271;98161;-83
2023/05/26 07:42:52;;;;;;;12.80;4.80;;;;;;;19.68;68.13;101272.55;105231;1271;98455;-83
2023/05/26 07:45:38;;;;;;;8.60;4.70;;;;;;;19.77;68.66;101277.90;105279;1265;102106;-84
2023/05/26 07:48:24;;;;;;;11.70;4.40;;;;;;;19.89;68.83;101277.45;105295;1265;100575;-83
2023/05/26 07:51:09;;;;;;;12.40;5.70;;;;;;;19.94;68.03;101279.45;105391;1265;97982;-82
2023/05/26 07:53:54;;;;;;;9.50;5.40;;;;;;;19.97;66.97;101279.05;105442;1265;97963;-81
2023/05/26 07:56:40;;;;;;;8.80;4.90;;;;;;;19.96;66.59;101282.23;105468;1269;97918;-83
2023/05/26 07:59:26;;;;;;;7.40;4.20;;;;;;;19.98;66.59;101286.02;105502;1265;101376;-87
2023/05/26 08:02:12;;;;;;;8.20;4.60;;;;;;;20.06;66.86;101284.34;105349;1270;100275;-82
2023/05/26 08:04:57;;;;;;;8.30;4.40;;;;;;;20.15;66.81;101285.23;105636;1265;98051;-81
2023/05/26 08:07:42;;;;;;;8.20;4.30;;;;;;;20.23;66.47;101286.50;105761;1265;97950;-79
2023/05/26 08:10:28;;;;;;;8.30;3.80;;;;;;;20.31;65.72;101282.27;104750;1269;97911;-85
2023/05/26 08:13:14;;;;;;;10.70;3.80;;;;;;;20.34;64.75;101284.27;105343;1265;102116;-85
2023/05/26 08:15:59;;;;;;;7.50;4.00;;;;;;;20.33;64.29;101282.19;105508;1265;99182;-83
2023/05/26 08:18:45;;;;;;;10.70;4.90;;;;;;;20.34;64.01;101285.02;105691;1265;98218;-83
2023/05/26 08:21:31;;;;;;;6.70;3.80;;;;;;;20.37;63.66;101283.42;105564;1265;97932;-83
2023/05/26 08:24:17;;;;;;;8.70;3.80;;;;;;;20.43;63.13;101288.42;105726;1265;98103;-86
2023/05/26 08:27:02;;;;;;;6.10;3.70;;;;;;;20.49;63.31;101284.42;106740;1269;101362;-85
2023/05/26 08:29:48;;;;;;;10.30;3.90;;;;;;;20.54;62.78;101280.85;106981;1267;99128;-88
2023/05/26 08:32:34;;;;;;;11.50;3.80;;;;;;;20.59;62.56;101280.33;107007;1265;97876;-88
2023/05/26 08:35:20;;;;;;;10.50;3.50;;;;;;;20.66;61.71;101280.49;106097;1266;97904;-88
2023/05/26 08:38:05;;;;;;;7.40;3.80;;;;;;;20.70;60.19;101283.64;106209;1268;99706;-90
2023/05/26 08:40:56;;;;;;;6.60;3.70;;;;;;;20.70;59.08;101281.05;106033;1265;101351;-88
2023/05/26 08:43:46;;;;;;;11.70;4.60;;;;;;;20.67;58.76;101277.89;106195;1265;99612;-87
2023/05/26 08:46:32;;;;;;;8.00;3.40;;;;;;;20.70;58.97;101277.21;105396;1265;99047;-83
2023/05/26 08:49:18;;;;;;;6.00;3.00;;;;;;;20.69;58.16;101281.27;105408;1265;97891;-83
2023/05/26 08:52:13;;;;;;;7.80;3.60;;;;;;;20.71;56.90;101275.43;105314;1265;98416;-82
2023/05/26 08:54:59;;;;;;;10.30;3.90;;;;;;;20.75;57.05;101273.30;105411;1269;101432;-85
2023/05/26 08:57:44;;;;;;;12.10;3.40;;;;;;;20.77;56.74;101275.52;105286;1265;100382;-82
2023/05/26 09:00:30;;;;;;;8.60;3.80;;;;;;;20.83;57.23;101270.81;105514;1272;97970;-85
2023/05/26 09:03:15;;;;;;;7.00;3.80;;;;;;;20.90;56.98;101268.13;105539;1265;97973;-86
2023/05/26 09:06:02;;;;;;;9.60;3.90;;;;;;;20.94;57.20;101267.29;105759;1265;98557;-86
2023/05/26 09:08:48;;;;;;;9.40;3.90;;;;;;;21.02;56.68;101267.44;105467;1271;101337;-79
2023/05/26 09:11:43;;;;;;;7.60;3.50;;;;;;;21.07;56.31;101269.84;105228;1271;100481;-87
2023/05/26 09:14:29;;;;;;;8.50;3.10;;;;;;;21.09;56.33;101268.52;106001;1267;99269;-88
2023/05/26 09:17:15;;;;;;;10.40;3.60;;;;;;;21.04;54.77;101270.77;106126;1265;98069;-86
2023/05/26 09:20:01;;;;;;;10.50;3.10;;;;;;;21.03;54.82;101268.08;105909;1265;97984;-88
2023/05/26 09:22:47;;;;;;;6.90;3.40;;;;;;;21.05;54.00;101272.85;105771;1265;101269;-82
2023/05/26 09:25:38;;;;;;;9.70;3.60;;;;;;;21.02;53.46;101267.44;105511;1269;100408;-81
2023/05/26 09:28:23;;;;;;;8.40;3.30;;;;;;;20.96;53.36;101266.58;105588;1271;98493;-82
2023/05/26 09:31:10;;;;;;;9.50;4.30;;;;;;;20.99;54.67;101267.70;105460;1265;99037;-85
2023/05/26 09:33:55;;;;;;;7.90;3.40;;;;;;;21.09;54.97;101266.07;105363;1269;98410;-85
2023/05/26 09:36:42;;;;;;;8.50;3.10;;;;;;;21.17;53.83;101271.81;105513;1268;102482;-84
2023/05/26 09:39:32;;;;;;;8.60;3.50;;;;;;;21.18;53.04;101272.55;105455;1267;99086;-84
2023/05/26 09:42:18;;;;;;;10.60;3.30;;;;;;;21.18;52.82;101268.69;105650;1265;97895;-87
2023/05/26 09:45:04;;;;;;;8.00;2.90;;;;;;;21.24;52.81;101266.89;105570;1265;98002;-87
2023/05/26 09:47:54;;;;;;;11.10;3.10;;;;;;;21.28;51.95;101265.67;105743;1265;97861;-86
2023/05/26 09:50:40;;;;;;;6.10;2.90;;;;;;;21.25;51.41;101270.67;105757;1271;101950;-89
2023/05/26 09:53:26;;;;;;;9.10;3.00;;;;;;;21.22;50.81;101269.25;105581;1271;100142;-85
2023/05/26 09:56:18;;;;;;;6.30;2.60;;;;;;;21.21;51.22;101270.70;105652;1267;97911;-86
2023/05/26 09:59:05;;;;;;;8.70;3.10;;;;;;;21.23;50.19;101268.97;105468;1274;97960;-84
2023/05/26 10:01:52;;;;;;;8.00;3.60;;;;;;;21.23;50.00;101264.54;105560;1265;98498;-85
2023/05/26 10:04:39;;;;;;;9.60;3.60;;;;;;;21.28;50.59;101264.26;105401;1265;111281;-84
2023/05/26 10:07:27;;;;;;;6.30;3.10;;;;;;;21.31;50.37;101260.83;105411;1265;100001;-83
2023/05/26 10:10:14;;;;;;;7.30;3.00;;;;;;;21.35;50.70;101261.58;105475;1265;98008;-83
2023/05/26 10:13:01;;;;;;;13.90;3.10;;;;;;;21.43;50.56;101259.33;105526;1271;97981;-83
2023/05/26 10:15:48;;;;;;;6.10;2.40;;;;;;;21.49;50.25;101262.47;105514;1272;98504;-82
2023/05/26 10:18:33;;;;;;;7.40;3.10;;;;;;;21.59;50.32;101264.08;105601;1271;101500;-84
2023/05/26 10:21:24;;;;;;;10.70;3.40;;;;;;;21.62;49.11;101267.73;105570;1269;99118;-83
2023/05/26 10:24:16;;;;;;;10.20;3.10;;;;;;;21.62;48.85;101269.58;105432;1265;98044;-82
2023/05/26 10:27:13;;;;;;;7.50;3.90;;;;;;;21.62;48.79;101265.64;105480;1265;97903;-84
2023/05/26 10:30:11;;;;;;;8.30;3.10;;;;;;;21.67;49.21;101269.85;105617;1271;97878;-82
2023/05/26 10:33:11;;;;;;;11.70;3.50;;;;;;;21.74;48.71;101268.52;105619;1271;103016;-86
2023/05/26 10:35:57;;;;;;;6.80;3.30;;;;;;;21.81;48.53;101270.69;105622;1267;100352;-87
2023/05/26 10:38:46;;;;;;;11.80;3.10;;;;;;;21.87;48.28;101270.31;105511;1271;97787;-86
2023/05/26 10:41:34;;;;;;;10.30;3.10;;;;;;;21.89;47.85;101263.63;105622;1266;97972;-88
2023/05/26 10:44:41;;;;;;;8.50;2.90;;;;;;;21.90;47.60;101262.80;105888;1268;97802;-85
2023/05/26 10:47:30;;;;;;;8.20;3.00;;;;;;;21.89;47.16;101256.77;105657;1269;102426;-86
2023/05/26 10:50:16;;;;;;;5.30;2.60;;;;;;;21.91;47.26;101260.90;105619;1265;99197;-85
2023/05/26 10:53:18;;;;;;;9.00;2.80;;;;;;;21.97;47.28;101258.44;105641;1270;98048;-81
2023/05/26 10:56:05;;;;;;;5.10;2.40;;;;;;;22.04;46.74;101255.35;105393;1270;98060;-84
2023/05/26 10:58:56;;;;;;;6.80;2.70;;;;;;;22.07;46.12;101255.68;105349;1265;97937;-83
2023/05/26 11:01:49;;;;;;;6.80;3.10;;;;;;;22.09;45.72;101251.78;105402;1265;101359;-83
2023/05/26 11:04:45;;;;;;;6.20;3.30;;;;;;;22.08;45.60;101250.51;105443;1270;99856;-84
2023/05/26 11:07:31;;;;;;;5.70;2.70;;;;;;;22.04;45.55;101259.66;105517;1271;99037;-83
2023/05/26 11:10:16;;;;;;;4.40;2.50;;;;;;;22.08;45.93;101253.46;105582;1265;97989;-83
2023/05/26 11:13:02;;;;;;;5.50;2.60;;;;;;;22.14;45.63;101252.70;105575;1265;97817;-85
2023/05/26 11:16:22;;;;;;;4.90;2.40;;;;;;;22.21;45.81;101247.69;105539;1265;102773;-87
2023/05/26 11:19:10;;;;;;;7.90;2.70;;;;;;;22.22;46.02;101250.20;105545;1269;100603;-85
2023/05/26 11:21:57;;;;;;;5.00;2.20;;;;;;;22.22;45.44;101254.18;105474;1265;98037;-84
2023/05/26 11:24:44;;;;;;;6.20;2.20;;;;;;;22.14;44.54;101254.50;105442;1269;99208;-85
2023/05/26 11:27:29;;;;;;;8.20;2.50;;;;;;;22.05;43.94;101253.72;105755;1265;97910;-88
2023/05/26 11:30:17;;;;;;;5.80;2.60;;;;;;;21.95;44.19;101254.48;105498;1271;101335;-86
2023/05/26 11:33:12;;;;;;;9.90;2.70;;;;;;;21.82;44.01;101251.93;105497;1270;100447;-83
2023/05/26 11:36:05;;;;;;;4.60;2.50;;;;;;;21.76;44.22;101253.60;105427;1265;106473;-84
2023/05/26 11:38:54;;;;;;;4.80;2.50;;;;;;;21.76;43.87;101253.11;105355;1267;98069;-84
2023/05/26 11:41:39;;;;;;;6.50;2.70;;;;;;;21.74;43.41;101249.26;105569;1269;98616;-83
2023/05/26 11:44:28;;;;;;;6.90;2.40;;;;;;;21.77;43.80;101254.00;105508;1270;102216;-84
2023/05/26 11:47:14;;;;;;;3.90;2.70;;;;;;;21.80;43.85;101254.23;105528;1268;98924;-83
2023/05/26 11:50:10;;;;;;;5.60;2.50;;;;;;;21.84;43.77;101251.48;105403;1269;98180;-84
2023/05/26 11:52:56;;;;;;;5.90;2.30;;;;;;;21.93;43.82;101248.42;105293;1265;97985;-85
2023/05/26 11:55:45;;;;;;;6.50;2.30;;;;;;;22.03;43.82;101245.56;105434;1271;97987;-85
2023/05/26 11:58:33;;;;;;;3.80;2.40;;;;;;;22.08;43.94;101243.70;105445;1269;103796;-85
2023/05/26 12:01:21;;;;;;;8.60;2.80;;;;;;;22.11;43.64;101245.00;105441;1265;98873;-85
2023/05/26 12:04:07;;;;;;;8.50;2.50;;;;;;;22.19;43.44;101245.47;105459;1269;99081;-86
2023/05/26 12:06:52;;;;;;;6.10;2.70;;;;;;;22.28;43.85;101247.52;105688;1273;97868;-86
2023/05/26 12:09:40;;;;;;;7.00;2.80;;;;;;;22.39;44.76;101240.55;105496;1265;97892;-86
2023/05/26 12:12:27;;;;;;;5.70;2.60;;;;;;;22.49;44.98;101243.77;105646;1265;102629;-86
2023/05/26 12:15:18;;;;;;;5.80;3.00;;;;;;;22.54;44.99;101246.30;105707;1271;100422;-84
2023/05/26 12:18:04;;;;;;;7.20;2.90;;;;;;;22.56;44.50;101246.32;105303;1272;98369;-85
2023/05/26 12:20:50;;;;;;;7.80;2.90;;;;;;;22.56;44.10;101241.69;105573;1270;99266;-85
2023/05/26 12:23:35;;;;;;;11.30;3.00;;;;;;;22.57;44.16;101244.11;105551;1267;97830;-83
2023/05/26 12:26:27;;;;;;;8.10;3.10;;;;;;;22.52;43.86;101247.25;105465;1270;102648;-86
2023/05/26 12:29:15;;;;;;;7.80;2.40;;;;;;;22.34;43.60;101238.61;105342;1270;99113;-82
2023/05/26 12:32:04;;;;;;;9.40;2.90;;;;;;;22.30;43.96;101232.05;105384;1265;99578;-80
2023/05/26 12:34:50;;;;;;;5.00;2.70;;;;;;;22.38;44.23;101228.80;105601;1270;97966;-82
2023/05/26 12:37:35;;;;;;;8.50;2.30;;;;;;;22.44;44.40;101229.48;105688;1269;98662;-80
2023/05/26 12:40:20;;;;;;;8.60;2.70;;;;;;;22.45;43.72;101231.25;105740;1269;101425;-81